sensor_id;sensor_type;location;lat;lon;timestamp;pressure;altitude;pressure_sealevel;temperature;humidity
50123;BME280;36021;48.670;6.184;2023-04-22T00:01:05;98189.00;;;13.52;100.00
50123;BME280;36021;48.670;6.184;2023-04-22T00:03:31;98179.91;;;13.52;100.00
50123;BME280;36021;48.670;6.184;2023-04-22T00:05:57;98181.84;;;13.51;100.00
50123;BME280;36021;48.670;6.184;2023-04-22T00:08:23;98174.06;;;13.45;100.00
50123;BME280;36021;48.670;6.184;2023-04-22T00:10:50;98179.97;;;13.43;100.00
50123;BME280;36021;48.670;6.184;2023-04-22T00:13:15;98183.19;;;13.45;100.00
50123;BME280;36021;48.670;6.184;2023-04-22T00:15:41;98181.97;;;13.34;100.00
50123;BME280;36021;48.670;6.184;2023-04-22T00:18:06;98181.47;;;13.32;100.00
50123;BME280;36021;48.670;6.184;2023-04-22T00:20:42;98179.06;;;13.22;100.00
50123;BME280;36021;48.670;6.184;2023-04-22T00:23:10;98183.50;;;13.06;100.00
50123;BME280;36021;48.670;6.184;2023-04-22T00:25:40;98179.50;;;12.95;100.00
50123;BME280;36021;48.670;6.184;2023-04-22T00:28:05;98169.09;;;12.92;100.00
50123;BME280;36021;48.670;6.184;2023-04-22T00:30:31;98177.69;;;12.99;100.00
50123;BME280;36021;48.670;6.184;2023-04-22T00:32:57;98176.38;;;13.05;100.00
50123;BME280;36021;48.670;6.184;2023-04-22T00:35:23;98171.00;;;13.00;100.00
50123;BME280;36021;48.670;6.184;2023-04-22T00:37:48;98176.59;;;12.83;100.00
50123;BME280;36021;48.670;6.184;2023-04-22T00:40:14;98185.13;;;12.69;100.00
50123;BME280;36021;48.670;6.184;2023-04-22T00:42:42;98180.53;;;12.82;100.00
50123;BME280;36021;48.670;6.184;2023-04-22T00:45:14;98168.69;;;12.73;100.00
50123;BME280;36021;48.670;6.184;2023-04-22T00:47:43;98176.59;;;12.83;100.00
50123;BME280;36021;48.670;6.184;2023-04-22T00:50:10;98169.63;;;12.85;100.00
50123;BME280;36021;48.670;6.184;2023-04-22T00:52:36;98161.13;;;12.90;100.00
50123;BME280;36021;48.670;6.184;2023-04-22T00:55:02;98159.03;;;12.87;100.00
50123;BME280;36021;48.670;6.184;2023-04-22T00:57:29;98161.63;;;12.84;100.00
50123;BME280;36021;48.670;6.184;2023-04-22T00:59:56;98156.25;;;12.87;100.00
50123;BME280;36021;48.670;6.184;2023-04-22T01:02:21;98160.22;;;12.69;100.00
50123;BME280;36021;48.670;6.184;2023-04-22T01:04:47;98167.84;;;12.81;100.00
50123;BME280;36021;48.670;6.184;2023-04-22T01:07:14;98167.66;;;12.86;100.00
50123;BME280;36021;48.670;6.184;2023-04-22T01:09:42;98166.34;;;12.92;100.00
50123;BME280;36021;48.670;6.184;2023-04-22T01:12:07;98171.50;;;13.02;100.00
50123;BME280;36021;48.670;6.184;2023-04-22T01:14:33;98163.75;;;12.87;100.00
50123;BME280;36021;48.670;6.184;2023-04-22T01:16:59;98165.19;;;12.93;100.00
50123;BME280;36021;48.670;6.184;2023-04-22T01:19:25;98168.75;;;13.02;100.00
50123;BME280;36021;48.670;6.184;2023-04-22T01:21:51;98169.88;;;13.01;100.00
50123;BME280;36021;48.670;6.184;2023-04-22T01:24:17;98161.06;;;13.07;100.00
50123;BME280;36021;48.670;6.184;2023-04-22T01:26:44;98168.44;;;12.95;100.00
50123;BME280;36021;48.670;6.184;2023-04-22T01:29:10;98167.53;;;12.74;100.00
50123;BME280;36021;48.670;6.184;2023-04-22T01:31:36;98168.19;;;12.71;100.00
50123;BME280;36021;48.670;6.184;2023-04-22T01:34:02;98165.72;;;12.78;100.00
50123;BME280;36021;48.670;6.184;2023-04-22T01:36:28;98164.59;;;12.79;100.00
50123;BME280;36021;48.670;6.184;2023-04-22T01:38:54;98162.16;;;12.77;100.00
50123;BME280;36021;48.670;6.184;2023-04-22T01:41:20;98165.75;;;12.69;100.00
50123;BME280;36021;48.670;6.184;2023-04-22T01:43:49;98173.09;;;12.65;100.00
50123;BME280;36021;48.670;6.184;2023-04-22T01:46:15;98171.13;;;12.66;100.00
50123;BME280;36021;48.670;6.184;2023-04-22T01:48:41;98162.84;;;12.57;100.00
50123;BME280;36021;48.670;6.184;2023-04-22T01:51:08;98171.16;;;12.48;100.00
50123;BME280;36021;48.670;6.184;2023-04-22T01:53:36;98175.06;;;12.47;100.00
50123;BME280;36021;48.670;6.184;2023-04-22T01:56:03;98168.75;;;12.38;100.00
50123;BME280;36021;48.670;6.184;2023-04-22T01:58:29;98171.84;;;12.28;100.00
50123;BME280;36021;48.670;6.184;2023-04-22T02:00:55;98164.22;;;12.08;100.00
50123;BME280;36021;48.670;6.184;2023-04-22T02:03:21;98169.13;;;11.94;100.00
50123;BME280;36021;48.670;6.184;2023-04-22T02:05:46;98162.75;;;11.76;100.00
50123;BME280;36021;48.670;6.184;2023-04-22T02:08:13;98168.44;;;11.71;100.00
50123;BME280;36021;48.670;6.184;2023-04-22T02:10:39;98168.72;;;11.61;100.00
50123;BME280;36021;48.670;6.184;2023-04-22T02:13:06;98163.34;;;11.47;100.00
50123;BME280;36021;48.670;6.184;2023-04-22T02:15:31;98165.13;;;11.43;100.00
50123;BME280;36021;48.670;6.184;2023-04-22T02:17:57;98165.59;;;11.45;100.00
50123;BME280;36021;48.670;6.184;2023-04-22T02:20:22;98171.13;;;11.45;100.00
50123;BME280;36021;48.670;6.184;2023-04-22T02:22:49;98173.41;;;11.43;100.00
50123;BME280;36021;48.670;6.184;2023-04-22T02:25:15;98172.75;;;11.38;100.00
50123;BME280;36021;48.670;6.184;2023-04-22T02:27:41;98175.50;;;11.38;100.00
50123;BME280;36021;48.670;6.184;2023-04-22T02:30:07;98174.34;;;11.30;100.00
50123;BME280;36021;48.670;6.184;2023-04-22T02:32:34;98177.75;;;11.36;100.00
50123;BME280;36021;48.670;6.184;2023-04-22T02:35:01;98169.34;;;11.41;100.00
50123;BME280;36021;48.670;6.184;2023-04-22T02:37:27;98172.75;;;11.38;100.00
50123;BME280;36021;48.670;6.184;2023-04-22T02:39:53;98176.31;;;11.38;100.00
50123;BME280;36021;48.670;6.184;2023-04-22T02:42:20;98173.56;;;11.38;100.00
50123;BME280;36021;48.670;6.184;2023-04-22T02:44:45;98164.94;;;11.40;100.00
50123;BME280;36021;48.670;6.184;2023-04-22T02:47:11;98173.56;;;11.38;100.00
50123;BME280;36021;48.670;6.184;2023-04-22T02:49:40;98174.16;;;11.35;100.00
50123;BME280;36021;48.670;6.184;2023-04-22T02:52:06;98160.06;;;11.28;100.00
50123;BME280;36021;48.670;6.184;2023-04-22T02:54:31;98162.94;;;11.23;100.00
50123;BME280;36021;48.670;6.184;2023-04-22T02:56:57;98156.31;;;11.24;100.00
50123;BME280;36021;48.670;6.184;2023-04-22T02:59:25;98165.41;;;11.25;100.00
50123;BME280;36021;48.670;6.184;2023-04-22T03:01:51;98159.41;;;11.31;100.00
50123;BME280;36021;48.670;6.184;2023-04-22T03:04:33;98152.63;;;11.37;100.00
50123;BME280;36021;48.670;6.184;2023-04-22T03:06:59;98159.59;;;11.35;100.00
50123;BME280;36021;48.670;6.184;2023-04-22T03:09:25;98153.09;;;11.39;100.00
50123;BME280;36021;48.670;6.184;2023-04-22T03:11:51;98156.97;;;11.30;100.00
50123;BME280;36021;48.670;6.184;2023-04-22T03:14:17;98160.56;;;11.39;100.00
50123;BME280;36021;48.670;6.184;2023-04-22T03:16:43;98161.72;;;11.46;100.00
50123;BME280;36021;48.670;6.184;2023-04-22T03:19:08;98161.88;;;11.50;100.00
50123;BME280;36021;48.670;6.184;2023-04-22T03:21:34;98159.78;;;11.56;100.00
50123;BME280;36021;48.670;6.184;2023-04-22T03:24:00;98150.72;;;11.64;100.00
50123;BME280;36021;48.670;6.184;2023-04-22T03:26:31;98161.31;;;11.70;100.00
50123;BME280;36021;48.670;6.184;2023-04-22T03:28:58;98154.31;;;11.73;100.00
50123;BME280;36021;48.670;6.184;2023-04-22T03:31:23;98150.44;;;11.74;100.00
50123;BME280;36021;48.670;6.184;2023-04-22T03:33:49;98146.38;;;11.80;100.00
50123;BME280;36021;48.670;6.184;2023-04-22T03:36:23;98142.94;;;11.83;100.00
50123;BME280;36021;48.670;6.184;2023-04-22T03:38:49;98142.16;;;11.91;100.00
50123;BME280;36021;48.670;6.184;2023-04-22T03:41:16;98133.50;;;12.01;100.00
50123;BME280;36021;48.670;6.184;2023-04-22T03:43:45;98122.31;;;12.23;100.00
50123;BME280;36021;48.670;6.184;2023-04-22T03:46:10;98125.00;;;12.40;100.00
50123;BME280;36021;48.670;6.184;2023-04-22T03:48:39;98120.44;;;12.53;100.00
50123;BME280;36021;48.670;6.184;2023-04-22T03:51:11;98118.47;;;12.62;100.00
50123;BME280;36021;48.670;6.184;2023-04-22T03:53:40;98114.22;;;12.65;100.00
50123;BME280;36021;48.670;6.184;2023-04-22T03:56:08;98113.72;;;12.71;100.00
50123;BME280;36021;48.670;6.184;2023-04-22T03:58:38;98117.59;;;12.70;100.00
50123;BME280;36021;48.670;6.184;2023-04-22T04:01:06;98126.41;;;12.72;100.00
50123;BME280;36021;48.670;6.184;2023-04-22T04:03:32;98127.22;;;12.73;100.00
50123;BME280;36021;48.670;6.184;2023-04-22T04:05:58;98128.81;;;12.74;100.00
50123;BME280;36021;48.670;6.184;2023-04-22T04:08:25;98132.06;;;12.76;100.00
50123;BME280;36021;48.670;6.184;2023-04-22T04:10:51;98117.09;;;12.77;100.00
50123;BME280;36021;48.670;6.184;2023-04-22T04:13:16;98123.44;;;12.77;100.00
50123;BME280;36021;48.670;6.184;2023-04-22T04:15:54;98133.38;;;12.78;100.00
50123;BME280;36021;48.670;6.184;2023-04-22T04:18:19;98118.06;;;12.81;100.00
50123;BME280;36021;48.670;6.184;2023-04-22T04:20:46;98116.56;;;12.83;100.00
50123;BME280;36021;48.670;6.184;2023-04-22T04:23:13;98126.81;;;12.83;100.00
50123;BME280;36021;48.670;6.184;2023-04-22T04:25:39;98122.09;;;12.83;100.00
50123;BME280;36021;48.670;6.184;2023-04-22T04:28:10;98125.22;;;12.82;100.00
50123;BME280;36021;48.670;6.184;2023-04-22T04:30:36;98121.28;;;12.83;100.00
50123;BME280;36021;48.670;6.184;2023-04-22T04:33:02;98125.22;;;12.82;100.00
50123;BME280;36021;48.670;6.184;2023-04-22T04:35:35;98117.38;;;12.84;100.00
50123;BME280;36021;48.670;6.184;2023-04-22T04:38:05;98129.59;;;12.83;100.00
50123;BME280;36021;48.670;6.184;2023-04-22T04:40:33;98128.59;;;12.87;100.00
50123;BME280;36021;48.670;6.184;2023-04-22T04:43:07;98123.06;;;12.87;100.00
50123;BME280;36021;48.670;6.184;2023-04-22T04:45:40;98123.88;;;12.88;100.00
50123;BME280;36021;48.670;6.184;2023-04-22T04:48:15;98111.03;;;12.92;100.00
50123;BME280;36021;48.670;6.184;2023-04-22T04:50:46;98112.81;;;12.88;100.00
50123;BME280;36021;48.670;6.184;2023-04-22T04:53:12;98112.16;;;12.91;100.00
50123;BME280;36021;48.670;6.184;2023-04-22T04:55:40;98104.31;;;12.93;100.00
50123;BME280;36021;48.670;6.184;2023-04-22T04:58:18;98105.97;;;12.94;100.00
50123;BME280;36021;48.670;6.184;2023-04-22T05:00:47;98112.63;;;12.93;100.00
50123;BME280;36021;48.670;6.184;2023-04-22T05:03:14;98105.16;;;12.93;100.00
50123;BME280;36021;48.670;6.184;2023-04-22T05:05:40;98105.66;;;12.95;100.00
50123;BME280;36021;48.670;6.184;2023-04-22T05:08:05;98117.50;;;12.96;100.00
50123;BME280;36021;48.670;6.184;2023-04-22T05:10:33;98121.41;;;12.95;100.00
50123;BME280;36021;48.670;6.184;2023-04-22T05:12:59;98127.41;;;12.97;100.00
50123;BME280;36021;48.670;6.184;2023-04-22T05:15:25;98141.72;;;12.99;100.00
50123;BME280;36021;48.670;6.184;2023-04-22T05:17:51;98140.78;;;12.95;100.00
50123;BME280;36021;48.670;6.184;2023-04-22T05:20:16;98150.69;;;12.96;100.00
50123;BME280;36021;48.670;6.184;2023-04-22T05:22:43;98146.78;;;12.97;100.00
50123;BME280;36021;48.670;6.184;2023-04-22T05:25:12;98159.94;;;13.00;100.00
50123;BME280;36021;48.670;6.184;2023-04-22T05:27:43;98165.47;;;13.00;100.00
50123;BME280;36021;48.670;6.184;2023-04-22T05:30:11;98175.41;;;13.01;100.00
50123;BME280;36021;48.670;6.184;2023-04-22T05:32:37;98175.88;;;13.03;100.00
50123;BME280;36021;48.670;6.184;2023-04-22T05:35:03;98182.69;;;13.05;100.00
50123;BME280;36021;48.670;6.184;2023-04-22T05:37:29;98181.91;;;13.05;100.00
50123;BME280;36021;48.670;6.184;2023-04-22T05:39:55;98182.38;;;13.07;100.00
50123;BME280;36021;48.670;6.184;2023-04-22T05:42:21;98187.75;;;13.12;100.00
50123;BME280;36021;48.670;6.184;2023-04-22T05:44:47;98180.41;;;13.16;100.00
50123;BME280;36021;48.670;6.184;2023-04-22T05:47:13;98180.91;;;13.18;100.00
50123;BME280;36021;48.670;6.184;2023-04-22T05:49:40;98181.69;;;13.19;100.00
50123;BME280;36021;48.670;6.184;2023-04-22T05:52:22;98183.94;;;13.25;100.00
50123;BME280;36021;48.670;6.184;2023-04-22T05:54:57;98180.34;;;13.33;100.00
50123;BME280;36021;48.670;6.184;2023-04-22T05:57:22;98176.44;;;13.34;100.00
50123;BME280;36021;48.670;6.184;2023-04-22T05:59:49;98171.31;;;13.45;100.00
50123;BME280;36021;48.670;6.184;2023-04-22T06:02:15;98189.00;;;13.52;100.00
50123;BME280;36021;48.670;6.184;2023-04-22T06:04:41;98182.63;;;13.61;100.00
50123;BME280;36021;48.670;6.184;2023-04-22T06:07:06;98170.53;;;13.65;100.00
50123;BME280;36021;48.670;6.184;2023-04-22T06:09:32;98179.47;;;13.71;100.00
50123;BME280;36021;48.670;6.184;2023-04-22T06:11:58;98168.53;;;13.74;100.00
50123;BME280;36021;48.670;6.184;2023-04-22T06:14:24;98186.72;;;13.84;100.00
50123;BME280;36021;48.670;6.184;2023-04-22T06:16:49;98172.19;;;13.87;100.00
50123;BME280;36021;48.670;6.184;2023-04-22T06:19:17;98178.66;;;13.91;100.00
50123;BME280;36021;48.670;6.184;2023-04-22T06:21:42;98179.47;;;13.91;100.00
50123;BME280;36021;48.670;6.184;2023-04-22T06:24:08;98194.34;;;13.87;100.00
50123;BME280;36021;48.670;6.184;2023-04-22T06:26:36;98180.28;;;13.92;100.00
50123;BME280;36021;48.670;6.184;2023-04-22T06:29:02;98180.28;;;13.92;100.00
50123;BME280;36021;48.670;6.184;2023-04-22T06:31:30;98181.69;;;13.98;100.00
50123;BME280;36021;48.670;6.184;2023-04-22T06:33:56;98178.59;;;13.99;100.00
50123;BME280;36021;48.670;6.184;2023-04-22T06:36:24;98183.78;;;14.01;100.00
50123;BME280;36021;48.670;6.184;2023-04-22T06:38:55;98172.25;;;14.20;100.00
50123;BME280;36021;48.670;6.184;2023-04-22T06:41:34;98170.06;;;14.25;100.00
50123;BME280;36021;48.670;6.184;2023-04-22T06:44:07;98160.22;;;14.36;100.00
50123;BME280;36021;48.670;6.184;2023-04-22T06:47:03;98165.31;;;14.46;100.00
50123;BME280;36021;48.670;6.184;2023-04-22T06:49:55;98165.81;;;14.48;100.00
50123;BME280;36021;48.670;6.184;2023-04-22T06:52:30;98179.19;;;14.46;100.00
50123;BME280;36021;48.670;6.184;2023-04-22T06:54:57;98175.63;;;14.46;100.00
50123;BME280;36021;48.670;6.184;2023-04-22T06:57:23;98175.97;;;14.44;100.00
50123;BME280;36021;48.670;6.184;2023-04-22T06:59:48;98188.81;;;14.49;100.00
50123;BME280;36021;48.670;6.184;2023-04-22T07:02:15;98185.81;;;14.54;100.00
50123;BME280;36021;48.670;6.184;2023-04-22T07:04:41;98179.72;;;14.60;100.00
50123;BME280;36021;48.670;6.184;2023-04-22T07:07:07;98191.50;;;14.57;100.00
50123;BME280;36021;48.670;6.184;2023-04-22T07:09:35;98186.06;;;14.61;100.00
50123;BME280;36021;48.670;6.184;2023-04-22T07:12:01;98195.53;;;14.60;100.00
50123;BME280;36021;48.670;6.184;2023-04-22T07:14:29;98199.38;;;14.68;100.00
50123;BME280;36021;48.670;6.184;2023-04-22T07:16:54;98191.88;;;14.68;100.00
50123;BME280;36021;48.670;6.184;2023-04-22T07:19:20;98198.03;;;14.86;100.00
50123;BME280;36021;48.670;6.184;2023-04-22T07:21:47;98191.13;;;14.92;100.00
50123;BME280;36021;48.670;6.184;2023-04-22T07:24:12;98201.56;;;14.95;100.00
50123;BME280;36021;48.670;6.184;2023-04-22T07:26:39;98197.59;;;14.96;100.00
50123;BME280;36021;48.670;6.184;2023-04-22T07:29:06;98197.47;;;14.92;100.00
50123;BME280;36021;48.670;6.184;2023-04-22T07:31:34;98201.69;;;15.10;100.00
50123;BME280;36021;48.670;6.184;2023-04-22T07:34:00;98204.47;;;15.23;100.00
50123;BME280;36021;48.670;6.184;2023-04-22T07:36:25;98214.56;;;15.27;100.00
50123;BME280;36021;48.670;6.184;2023-04-22T07:38:51;98218.84;;;15.37;100.00
50123;BME280;36021;48.670;6.184;2023-04-22T07:41:16;98210.38;;;15.45;100.00
50123;BME280;36021;48.670;6.184;2023-04-22T07:43:45;98212.97;;;15.50;100.00
50123;BME280;36021;48.670;6.184;2023-04-22T07:46:10;98218.41;;;15.59;100.00
50123;BME280;36021;48.670;6.184;2023-04-22T07:48:36;98229.19;;;15.60;100.00
50123;BME280;36021;48.670;6.184;2023-04-22T07:51:02;98199.53;;;15.64;100.00
50123;BME280;36021;48.670;6.184;2023-04-22T07:53:31;98228.59;;;15.55;100.00
50123;BME280;36021;48.670;6.184;2023-04-22T07:55:57;98208.69;;;15.65;100.00
50123;BME280;36021;48.670;6.184;2023-04-22T07:58:24;98210.31;;;15.66;100.00
50123;BME280;36021;48.670;6.184;2023-04-22T08:00:49;98229.63;;;15.62;100.00
50123;BME280;36021;48.670;6.184;2023-04-22T08:03:15;98212.53;;;15.60;100.00
50123;BME280;36021;48.670;6.184;2023-04-22T08:05:41;98215.97;;;15.70;100.00
50123;BME280;36021;48.670;6.184;2023-04-22T08:08:07;98214.59;;;15.76;100.00
50123;BME280;36021;48.670;6.184;2023-04-22T08:10:32;98228.22;;;15.81;100.00
50123;BME280;36021;48.670;6.184;2023-04-22T08:12:58;98219.66;;;15.98;100.00
50123;BME280;36021;48.670;6.184;2023-04-22T08:15:24;98224.06;;;15.99;100.00
50123;BME280;36021;48.670;6.184;2023-04-22T08:17:50;98231.25;;;16.00;100.00
50123;BME280;36021;48.670;6.184;2023-04-22T08:20:16;98242.91;;;16.17;100.00
50123;BME280;36021;48.670;6.184;2023-04-22T08:22:43;98244.19;;;16.08;100.00
50123;BME280;36021;48.670;6.184;2023-04-22T08:25:10;98240.38;;;16.00;100.00
50123;BME280;36021;48.670;6.184;2023-04-22T08:27:38;98241.19;;;16.01;100.00
50123;BME280;36021;48.670;6.184;2023-04-22T08:30:05;98254.97;;;16.09;100.00
50123;BME280;36021;48.670;6.184;2023-04-22T08:32:31;98261.09;;;15.91;100.00
50123;BME280;36021;48.670;6.184;2023-04-22T08:34:56;98263.44;;;16.13;100.00
50123;BME280;36021;48.670;6.184;2023-04-22T08:37:22;98240.59;;;16.20;100.00
50123;BME280;36021;48.670;6.184;2023-04-22T08:39:48;98245.63;;;16.30;100.00
50123;BME280;36021;48.670;6.184;2023-04-22T08:42:14;98251.31;;;16.45;100.00
50123;BME280;36021;48.670;6.184;2023-04-22T08:44:40;98259.09;;;16.28;100.00
50123;BME280;36021;48.670;6.184;2023-04-22T08:47:07;98238.59;;;16.20;100.00
50123;BME280;36021;48.670;6.184;2023-04-22T08:49:36;98250.41;;;16.29;100.00
50123;BME280;36021;48.670;6.184;2023-04-22T08:52:02;98254.78;;;16.42;100.00
50123;BME280;36021;48.670;6.184;2023-04-22T08:54:29;98252.50;;;16.32;100.00
50123;BME280;36021;48.670;6.184;2023-04-22T08:56:58;98247.50;;;16.38;100.00
50123;BME280;36021;48.670;6.184;2023-04-22T08:59:26;98249.50;;;16.25;100.00
50123;BME280;36021;48.670;6.184;2023-04-22T09:01:52;98249.75;;;16.08;100.00
50123;BME280;36021;48.670;6.184;2023-04-22T09:04:19;98253.38;;;15.96;100.00
50123;BME280;36021;48.670;6.184;2023-04-22T09:06:45;98254.16;;;15.97;100.00
50123;BME280;36021;48.670;6.184;2023-04-22T09:09:13;98263.88;;;15.91;100.00
50123;BME280;36021;48.670;6.184;2023-04-22T09:11:39;98282.06;;;15.64;100.00
50123;BME280;36021;48.670;6.184;2023-04-22T09:14:05;98262.97;;;15.50;100.00
50123;BME280;36021;48.670;6.184;2023-04-22T09:16:39;98253.88;;;15.41;100.00
50123;BME280;36021;48.670;6.184;2023-04-22T09:19:10;98254.81;;;15.33;100.00
50123;BME280;36021;48.670;6.184;2023-04-22T09:21:36;98260.00;;;15.35;100.00
50123;BME280;36021;48.670;6.184;2023-04-22T09:24:06;98260.38;;;15.33;100.00
50123;BME280;36021;48.670;6.184;2023-04-22T09:26:33;98260.91;;;15.15;100.00
50123;BME280;36021;48.670;6.184;2023-04-22T09:28:59;98265.59;;;15.02;100.00
50123;BME280;36021;48.670;6.184;2023-04-22T09:31:28;98277.19;;;15.04;100.00
50123;BME280;36021;48.670;6.184;2023-04-22T09:33:57;98279.84;;;15.00;100.00
50123;BME280;36021;48.670;6.184;2023-04-22T09:36:30;98296.63;;;14.83;100.00
50123;BME280;36021;48.670;6.184;2023-04-22T09:39:01;98305.78;;;14.63;100.00
50123;BME280;36021;48.670;6.184;2023-04-22T09:41:32;98307.47;;;14.76;100.00
50123;BME280;36021;48.670;6.184;2023-04-22T09:44:02;98316.34;;;14.70;100.00
50123;BME280;36021;48.670;6.184;2023-04-22T09:46:30;98313.16;;;14.80;100.00
50123;BME280;36021;48.670;6.184;2023-04-22T09:48:57;98308.22;;;14.85;100.00
50123;BME280;36021;48.670;6.184;2023-04-22T09:51:25;98313.41;;;14.87;100.00
50123;BME280;36021;48.670;6.184;2023-04-22T09:54:01;98314.81;;;14.93;100.00
50123;BME280;36021;48.670;6.184;2023-04-22T09:56:49;98312.69;;;14.98;100.00
50123;BME280;36021;48.670;6.184;2023-04-22T09:59:20;98319.41;;;15.09;100.00
50123;BME280;36021;48.670;6.184;2023-04-22T10:01:51;98311.19;;;15.01;100.00
50123;BME280;36021;48.670;6.184;2023-04-22T10:04:17;98314.41;;;15.03;100.00
50123;BME280;36021;48.670;6.184;2023-04-22T10:06:47;98303.53;;;14.98;100.00
50123;BME280;36021;48.670;6.184;2023-04-22T10:09:14;98307.06;;;15.19;100.00
50123;BME280;36021;48.670;6.184;2023-04-22T10:11:42;98307.31;;;15.26;100.00
50123;BME280;36021;48.670;6.184;2023-04-22T10:14:08;98306.66;;;15.08;100.00
50123;BME280;36021;48.670;6.184;2023-04-22T10:16:39;98307.69;;;15.37;100.00
50123;BME280;36021;48.670;6.184;2023-04-22T10:19:08;98304.06;;;15.69;100.00
50123;BME280;36021;48.670;6.184;2023-04-22T10:21:35;98297.94;;;16.00;100.00
50123;BME280;36021;48.670;6.184;2023-04-22T10:24:03;98294.56;;;15.94;100.00
50123;BME280;36021;48.670;6.184;2023-04-22T10:29:05;98290.84;;;16.39;100.00
50123;BME280;36021;48.670;6.184;2023-04-22T10:31:31;98293.25;;;16.40;100.00
50123;BME280;36021;48.670;6.184;2023-04-22T10:34:13;98284.53;;;16.54;100.00
50123;BME280;36021;48.670;6.184;2023-04-22T10:39:20;98278.00;;;16.22;100.00
50123;BME280;36021;48.670;6.184;2023-04-22T10:41:52;98284.56;;;16.30;100.00
50123;BME280;36021;48.670;6.184;2023-04-22T10:44:20;98276.34;;;16.45;100.00
50123;BME280;36021;48.670;6.184;2023-04-22T10:49:21;98285.56;;;16.09;100.00
50123;BME280;36021;48.670;6.184;2023-04-22T10:57:04;98276.91;;;16.91;100.00
50123;BME280;36021;48.670;6.184;2023-04-22T10:59:51;98275.03;;;16.95;100.00
50123;BME280;36021;48.670;6.184;2023-04-22T11:02:19;98272.53;;;17.05;100.00
50123;BME280;36021;48.670;6.184;2023-04-22T11:04:45;98279.41;;;16.96;100.00
50123;BME280;36021;48.670;6.184;2023-04-22T11:07:30;98277.59;;;17.31;100.00
50123;BME280;36021;48.670;6.184;2023-04-22T11:10:00;98277.88;;;17.26;100.00
50123;BME280;36021;48.670;6.184;2023-04-22T11:17:35;98267.22;;;16.73;100.00
50123;BME280;36021;48.670;6.184;2023-04-22T11:20:02;98259.91;;;17.24;100.00
50123;BME280;36021;48.670;6.184;2023-04-22T11:22:34;98270.47;;;17.18;100.00
50123;BME280;36021;48.670;6.184;2023-04-22T11:25:01;98262.50;;;17.32;100.00
50123;BME280;36021;48.670;6.184;2023-04-22T11:27:28;98263.44;;;17.67;100.00
50123;BME280;36021;48.670;6.184;2023-04-22T11:30:13;98270.56;;;17.81;100.00
50123;BME280;36021;48.670;6.184;2023-04-22T11:32:41;98264.59;;;17.98;100.00
50123;BME280;36021;48.670;6.184;2023-04-22T11:35:10;98276.47;;;18.45;100.00
50123;BME280;36021;48.670;6.184;2023-04-22T11:38:03;98266.44;;;18.25;100.00
50123;BME280;36021;48.670;6.184;2023-04-22T11:40:40;98272.34;;;18.39;100.00
50123;BME280;36021;48.670;6.184;2023-04-22T11:43:07;98261.00;;;18.86;100.00
50123;BME280;36021;48.670;6.184;2023-04-22T11:45:35;98269.63;;;18.97;100.00
50123;BME280;36021;48.670;6.184;2023-04-22T11:48:03;98260.91;;;19.63;100.00
50123;BME280;36021;48.670;6.184;2023-04-22T11:50:32;98254.69;;;20.22;100.00
50123;BME280;36021;48.670;6.184;2023-04-22T11:53:24;98251.28;;;20.36;100.00
50123;BME280;36021;48.670;6.184;2023-04-22T11:55:51;98256.22;;;20.19;100.00
50123;BME280;36021;48.670;6.184;2023-04-22T11:58:22;98256.91;;;20.13;100.00
50123;BME280;36021;48.670;6.184;2023-04-22T12:00:50;98263.91;;;20.26;100.00
50123;BME280;36021;48.670;6.184;2023-04-22T12:03:24;98254.78;;;20.29;100.00
50123;BME280;36021;48.670;6.184;2023-04-22T12:05:56;98253.34;;;19.90;100.00
50123;BME280;36021;48.670;6.184;2023-04-22T12:08:36;98256.16;;;20.16;100.00
50123;BME280;36021;48.670;6.184;2023-04-22T12:11:07;98239.34;;;19.63;100.00
50123;BME280;36021;48.670;6.184;2023-04-22T12:16:13;98240.28;;;19.48;100.00
50123;BME280;36021;48.670;6.184;2023-04-22T12:18:41;98251.00;;;19.92;100.00
50123;BME280;36021;48.670;6.184;2023-04-22T12:21:13;98246.88;;;19.59;100.00
50123;BME280;36021;48.670;6.184;2023-04-22T12:23:43;98265.63;;;19.59;100.00
50123;BME280;36021;48.670;6.184;2023-04-22T12:26:10;98257.94;;;19.33;100.00
50123;BME280;36021;48.670;6.184;2023-04-22T12:28:38;98258.97;;;19.44;100.00
50123;BME280;36021;48.670;6.184;2023-04-22T12:31:04;98266.31;;;19.52;100.00
50123;BME280;36021;48.670;6.184;2023-04-22T12:33:30;98258.81;;;19.37;100.00
50123;BME280;36021;48.670;6.184;2023-04-22T12:35:56;98273.56;;;19.15;100.00
50123;BME280;36021;48.670;6.184;2023-04-22T12:38:21;98266.31;;;18.72;100.00
50123;BME280;36021;48.670;6.184;2023-04-22T12:40:47;98255.06;;;18.68;100.00
50123;BME280;36021;48.670;6.184;2023-04-22T12:43:14;98255.94;;;18.72;100.00
50123;BME280;36021;48.670;6.184;2023-04-22T12:45:40;98259.03;;;18.67;100.00
50123;BME280;36021;48.670;6.184;2023-04-22T12:48:05;98273.34;;;18.66;100.00
50123;BME280;36021;48.670;6.184;2023-04-22T12:50:31;98260.13;;;18.28;100.00
50123;BME280;36021;48.670;6.184;2023-04-22T12:52:56;98264.38;;;18.22;100.00
50123;BME280;36021;48.670;6.184;2023-04-22T12:55:23;98262.34;;;18.03;100.00
50123;BME280;36021;48.670;6.184;2023-04-22T12:57:50;98274.53;;;17.80;100.00
50123;BME280;36021;48.670;6.184;2023-04-22T13:00:18;98280.56;;;17.66;100.00
50123;BME280;36021;48.670;6.184;2023-04-22T13:02:44;98275.78;;;17.66;100.00
50123;BME280;36021;48.670;6.184;2023-04-22T13:05:10;98277.28;;;17.64;100.00
50123;BME280;36021;48.670;6.184;2023-04-22T13:07:37;98271.56;;;17.73;100.00
50123;BME280;36021;48.670;6.184;2023-04-22T13:10:05;98274.16;;;17.65;100.00
50123;BME280;36021;48.670;6.184;2023-04-22T13:12:32;98281.09;;;17.72;100.00
50123;BME280;36021;48.670;6.184;2023-04-22T13:14:57;98287.81;;;17.70;100.00